Time;durP1;ratioP1;P1;durP2;ratioP2;P2;SDS_P1;SDS_P2;PMS_P1;PMS_P2;Temp;Humidity;BMP_temperature;BMP_pressure;BME280_temperature;BME280_humidity;BME280_pressure;Samples;Min_cycle;Max_cycle;Signal;HPM_P1;HPM_P2
2022/12/14 00:01:23;;;;;;;144.60;45.45;;;;;;;-9.77;77.67;98160.96;1668645;86;25610;-64
2022/12/14 00:03:51;;;;;;;147.05;45.73;;;;;;;-9.76;77.57;98166.59;1668939;86;25683;-68
2022/12/14 00:06:21;;;;;;;144.20;48.78;;;;;;;-9.73;77.50;98164.89;1669141;86;25426;-65
2022/12/14 00:08:51;;;;;;;144.10;47.03;;;;;;;-9.75;77.21;98162.43;1669390;86;27327;-69
2022/12/14 00:11:18;;;;;;;119.08;41.70;;;;;;;-9.77;77.11;98162.28;1668752;86;25688;-68
2022/12/14 00:13:46;;;;;;;122.85;42.53;;;;;;;-9.84;76.99;98159.61;1668698;85;25678;-69
2022/12/14 00:16:15;;;;;;;108.25;38.40;;;;;;;-9.92;77.06;98165.05;1668683;85;25786;-68
2022/12/14 00:18:43;;;;;;;119.35;40.78;;;;;;;-9.93;77.51;98162.09;1668686;86;25601;-68
2022/12/14 00:21:12;;;;;;;106.92;37.05;;;;;;;-9.97;77.58;98161.64;1668812;85;27420;-68
2022/12/14 00:23:41;;;;;;;86.40;33.35;;;;;;;-10.04;77.75;98154.98;1668979;85;25829;-67
2022/12/14 00:26:24;;;;;;;96.87;34.78;;;;;;;-10.12;77.74;98156.44;1668641;86;25687;-67
2022/12/14 00:28:53;;;;;;;73.62;26.60;;;;;;;-10.20;78.47;98155.57;1669040;86;26405;-68
2022/12/14 00:31:21;;;;;;;95.60;32.28;;;;;;;-10.27;78.70;98148.58;1668946;85;25595;-69
2022/12/14 00:33:47;;;;;;;102.72;34.92;;;;;;;-10.34;79.19;98153.80;1669224;86;26949;-68
2022/12/14 00:36:14;;;;;;;124.60;39.95;;;;;;;-10.34;79.14;98150.66;1668629;86;25641;-68
2022/12/14 00:38:41;;;;;;;114.00;40.05;;;;;;;-10.32;78.88;98155.77;1669146;86;25490;-69
2022/12/14 00:41:09;;;;;;;114.42;40.35;;;;;;;-10.29;78.86;98161.19;1668852;85;25857;-67
2022/12/14 00:43:36;;;;;;;118.50;42.00;;;;;;;-10.27;78.50;98156.03;1669073;85;25707;-67
2022/12/14 00:46:03;;;;;;;95.55;36.73;;;;;;;-10.23;78.49;98151.15;1668682;86;27463;-68
2022/12/14 00:48:30;;;;;;;82.95;28.35;;;;;;;-10.23;78.28;98154.63;1668672;85;25447;-69
2022/12/14 00:50:57;;;;;;;75.80;29.80;;;;;;;-10.38;78.52;98158.69;1669846;85;26152;-68
2022/12/14 00:53:25;;;;;;;97.67;33.65;;;;;;;-10.48;79.05;98153.72;1671272;85;25774;-67
2022/12/14 00:55:52;;;;;;;92.15;29.37;;;;;;;-10.53;79.54;98148.19;1671418;85;25610;-68
2022/12/14 00:58:22;;;;;;;98.67;35.45;;;;;;;-10.56;80.04;98153.86;1671379;85;27426;-66
2022/12/14 01:01:05;;;;;;;111.52;36.05;;;;;;;-10.63;79.99;98143.69;1671555;85;25470;-67
2022/12/14 01:03:32;;;;;;;55.48;19.62;;;;;;;-10.67;80.16;98137.97;1671502;85;25636;-67
2022/12/14 01:05:58;;;;;;;110.40;38.53;;;;;;;-10.75;80.72;98135.44;1671287;85;25824;-68
2022/12/14 01:08:25;;;;;;;118.30;39.42;;;;;;;-10.78;80.48;98139.28;1671151;85;25432;-68
2022/12/14 01:10:52;;;;;;;104.05;38.48;;;;;;;-10.78;80.59;98129.19;1671457;85;27482;-68
2022/12/14 01:13:18;;;;;;;113.60;38.00;;;;;;;-10.77;80.87;98129.00;1671294;85;25655;-69
2022/12/14 01:15:45;;;;;;;78.00;29.45;;;;;;;-10.74;80.71;98123.86;1671475;85;25671;-68
2022/12/14 01:18:11;;;;;;;100.00;36.95;;;;;;;-10.70;80.88;98122.45;1671405;85;25749;-68
2022/12/14 01:20:38;;;;;;;101.20;36.98;;;;;;;-10.70;81.10;98119.81;1671206;85;25437;-68
2022/12/14 01:23:04;;;;;;;105.67;39.05;;;;;;;-10.71;81.41;98114.21;1671607;85;28124;-68
2022/12/14 01:25:30;;;;;;;113.30;39.98;;;;;;;-10.69;81.22;98110.84;1671142;85;27251;-68
2022/12/14 01:27:57;;;;;;;121.67;40.17;;;;;;;-10.67;80.93;98104.87;1671299;85;25671;-68
2022/12/14 01:30:23;;;;;;;117.10;40.35;;;;;;;-10.68;80.64;98104.56;1671106;85;25764;-68
2022/12/14 01:32:50;;;;;;;116.03;40.75;;;;;;;-10.64;80.52;98098.37;1671696;85;25583;-69
2022/12/14 01:35:16;;;;;;;99.65;36.90;;;;;;;-10.65;80.10;98103.36;1671372;85;27477;-68
2022/12/14 01:37:42;;;;;;;105.25;33.75;;;;;;;-10.66;80.09;98101.20;1671135;85;25608;-68
2022/12/14 01:40:11;;;;;;;138.03;45.78;;;;;;;-10.68;80.02;98106.38;1671395;85;25654;-64
2022/12/14 01:42:37;;;;;;;128.93;43.05;;;;;;;-10.68;79.94;98104.56;1671536;85;25830;-68
2022/12/14 01:45:07;;;;;;;119.15;41.60;;;;;;;-10.65;79.90;98100.19;1671179;85;25711;-63
2022/12/14 01:47:41;;;;;;;129.57;44.20;;;;;;;-10.66;79.73;98099.08;1670679;85;27400;-68
2022/12/14 01:50:21;;;;;;;99.62;34.70;;;;;;;-10.64;79.62;98099.69;1671299;85;25671;-67
2022/12/14 01:52:51;;;;;;;82.30;29.15;;;;;;;-10.62;79.68;98099.01;1668901;86;25437;-67
2022/12/14 01:55:35;;;;;;;120.33;41.85;;;;;;;-10.61;79.84;98103.28;1669265;86;25620;-65
2022/12/14 01:58:21;;;;;;;114.67;39.70;;;;;;;-10.65;79.89;98095.41;1667622;86;25901;-66
2022/12/14 02:00:54;;;;;;;130.93;43.83;;;;;;;-10.68;79.68;98108.54;1624821;88;27403;-65
2022/12/14 02:03:27;;;;;;;121.35;42.13;;;;;;;-10.61;79.84;98104.11;1624723;88;25747;-67
2022/12/14 02:06:01;;;;;;;130.50;43.73;;;;;;;-10.61;79.52;98096.17;1624868;88;25617;-66
2022/12/14 02:08:29;;;;;;;125.07;42.27;;;;;;;-10.60;79.25;98091.17;1623381;88;26401;-66
2022/12/14 02:10:57;;;;;;;124.15;41.40;;;;;;;-10.61;79.08;98099.31;1603355;88;25732;-67
2022/12/14 02:13:36;;;;;;;120.30;42.03;;;;;;;-10.57;79.17;98097.11;1624787;88;27388;-67
2022/12/14 02:16:03;;;;;;;122.28;42.83;;;;;;;-10.62;78.83;98097.16;1603027;88;25833;-68
2022/12/14 02:18:31;;;;;;;115.12;41.95;;;;;;;-10.62;78.75;98098.48;1624781;88;25820;-66
2022/12/14 02:21:19;;;;;;;103.38;37.42;;;;;;;-10.65;78.56;98090.91;1624868;88;26323;-64
2022/12/14 02:24:35;;;;;;;113.05;40.60;;;;;;;-10.66;78.63;98088.48;1624982;88;25789;-67
2022/12/14 02:27:12;;;;;;;119.02;40.20;;;;;;;-10.63;78.74;98088.08;1546839;92;29539;-68
2022/12/14 02:30:05;;;;;;;104.65;38.73;;;;;;;-10.66;78.67;98090.61;1546801;92;25797;-69
2022/12/14 02:32:41;;;;;;;100.12;36.60;;;;;;;-10.68;78.75;98079.91;1545810;92;25499;-68
2022/12/14 02:35:41;;;;;;;121.30;40.25;;;;;;;-10.67;78.95;98085.50;1546847;92;25853;-67
2022/12/14 02:38:19;;;;;;;105.90;38.58;;;;;;;-10.67;78.82;98084.18;1573066;89;25558;-68
2022/12/14 02:40:59;;;;;;;90.90;36.42;;;;;;;-10.65;78.73;98078.20;1580371;90;27394;-67
2022/12/14 02:43:50;;;;;;;116.65;39.30;;;;;;;-10.64;78.60;98077.18;1580854;90;25633;-68
2022/12/14 02:46:25;;;;;;;91.30;30.27;;;;;;;-10.64;78.66;98067.91;1580268;90;25541;-68
2022/12/14 02:49:18;;;;;;;106.10;37.08;;;;;;;-10.58;78.66;98064.50;1580319;90;25769;-67
2022/12/14 02:51:52;;;;;;;98.70;35.58;;;;;;;-10.61;78.56;98059.59;1576550;90;25723;-69
2022/12/14 02:54:48;;;;;;;91.00;30.62;;;;;;;-10.63;78.50;98060.27;1575293;91;27546;-70
2022/12/14 02:57:28;;;;;;;32.90;11.08;;;;;;;-10.70;78.49;98049.64;1575944;91;25691;-69
2022/12/14 02:59:58;;;;;;;78.97;30.82;;;;;;;-10.77;78.61;98061.48;1584753;85;25881;-70
2022/12/14 03:02:25;;;;;;;47.20;19.12;;;;;;;-10.85;78.69;98056.34;1677645;85;25741;-70
2022/12/14 03:04:51;;;;;;;73.17;28.47;;;;;;;-10.85;78.82;98057.66;1677633;85;25747;-69
2022/12/14 03:07:35;;;;;;;96.70;31.97;;;;;;;-10.90;78.82;98049.46;1677438;85;27346;-68
2022/12/14 03:10:37;;;;;;;76.45;29.40;;;;;;;-10.92;78.85;98044.36;1677324;85;25457;-69
2022/12/14 03:13:20;;;;;;;53.52;21.02;;;;;;;-10.94;78.90;98041.10;1612812;88;25789;-68
2022/12/14 03:15:52;;;;;;;85.42;29.98;;;;;;;-10.95;78.88;98039.44;1612211;89;26707;-67
2022/12/14 03:18:24;;;;;;;92.85;33.15;;;;;;;-10.95;78.74;98035.47;1605442;89;25804;-68
2022/12/14 03:20:53;;;;;;;93.87;34.08;;;;;;;-10.94;78.87;98037.13;1612438;89;28229;-68
2022/12/14 03:23:24;;;;;;;79.20;30.08;;;;;;;-10.96;78.72;98037.32;1612381;89;25560;-69
2022/12/14 03:26:08;;;;;;;68.90;26.10;;;;;;;-10.95;78.77;98039.44;1612635;89;25528;-69
2022/12/14 03:28:48;;;;;;;48.78;20.55;;;;;;;-10.98;78.75;98035.36;1612082;89;25803;-67
2022/12/14 03:31:23;;;;;;;53.15;17.92;;;;;;;-10.99;78.84;98037.70;1612377;89;25824;-70
2022/12/14 03:33:53;;;;;;;73.10;24.82;;;;;;;-11.01;78.81;98033.58;1611726;89;26993;-68
2022/12/14 03:36:30;;;;;;;65.28;27.35;;;;;;;-11.07;79.01;98031.69;1612603;89;25825;-69
2022/12/14 03:38:59;;;;;;;88.95;30.62;;;;;;;-11.09;79.24;98025.27;1612215;89;25553;-67
2022/12/14 03:41:40;;;;;;;77.65;27.37;;;;;;;-11.07;79.25;98028.55;1612477;89;25821;-68
2022/12/14 03:44:20;;;;;;;44.53;16.23;;;;;;;-11.08;79.24;98029.56;1612477;89;25481;-69
2022/12/14 03:47:06;;;;;;;78.97;27.35;;;;;;;-11.09;79.33;98034.52;1612102;89;29532;-67
2022/12/14 03:49:40;;;;;;;45.58;16.85;;;;;;;-11.09;79.38;98037.16;1646725;85;25456;-65
2022/12/14 03:52:18;;;;;;;54.15;19.70;;;;;;;-11.09;79.38;98029.23;1643495;85;25489;-68
2022/12/14 03:55:05;;;;;;;84.00;28.40;;;;;;;-11.12;79.42;98029.11;1652073;86;25830;-69
2022/12/14 03:57:49;;;;;;;75.92;28.87;;;;;;;-11.13;79.44;98027.98;1612173;87;25735;-63
2022/12/14 04:00:22;;;;;;;86.97;29.48;;;;;;;-11.12;79.66;98038.87;1610154;89;29569;-65
2022/12/14 04:03:29;;;;;;;83.58;30.72;;;;;;;-11.07;79.66;98026.39;1612424;89;25503;-65
2022/12/14 04:06:03;;;;;;;83.65;27.82;;;;;;;-11.00;79.63;98031.27;1612482;89;25743;-67
2022/12/14 04:09:01;;;;;;;87.20;31.60;;;;;;;-11.01;79.41;98026.96;1612142;89;25764;-69
2022/12/14 04:20:08;;;;;;;81.70;30.97;;;;;;;-11.11;79.81;98018.03;1612217;89;25761;-66
2022/12/14 04:22:43;;;;;;;94.25;32.60;;;;;;;-11.13;79.76;98011.61;1612455;89;25860;-68
2022/12/14 04:28:05;;;;;;;42.23;16.57;;;;;;;-11.01;79.79;97996.03;1612487;89;25714;-66
2022/12/14 04:30:36;;;;;;;67.40;24.95;;;;;;;-10.97;79.75;97997.80;1612176;89;26002;-65
2022/12/14 04:35:53;;;;;;;30.08;12.80;;;;;;;-10.89;79.67;97992.86;1652275;86;25592;-66
2022/12/14 04:38:26;;;;;;;76.00;26.23;;;;;;;-10.91;79.69;97991.72;1652582;86;25728;-68
2022/12/14 04:40:56;;;;;;;74.10;28.47;;;;;;;-10.87;79.74;97988.20;1652307;86;27488;-68
2022/12/14 04:43:27;;;;;;;78.15;26.45;;;;;;;-10.84;79.68;97987.33;1652157;86;25468;-63
2022/12/14 04:46:07;;;;;;;31.68;11.75;;;;;;;-10.78;79.62;97992.84;1652836;86;25484;-68
2022/12/14 04:48:57;;;;;;;51.20;21.70;;;;;;;-10.76;79.52;97994.80;1652818;86;25723;-68
2022/12/14 04:51:33;;;;;;;52.50;22.20;;;;;;;-10.79;79.46;97986.75;1654580;84;25659;-68
2022/12/14 04:54:07;;;;;;;65.60;22.75;;;;;;;-10.79;79.55;97985.92;1669215;85;28209;-68
2022/12/14 04:56:45;;;;;;;60.63;22.93;;;;;;;-10.77;79.65;97964.86;1668992;86;25419;-69
2022/12/14 04:59:11;;;;;;;39.85;16.50;;;;;;;-10.73;79.61;97971.92;1668495;86;25694;-68
2022/12/14 05:01:49;;;;;;;68.70;24.95;;;;;;;-10.72;79.51;97965.60;1668780;85;25683;-68
2022/12/14 05:04:29;;;;;;;54.58;20.08;;;;;;;-10.72;79.52;97964.28;1668588;86;25450;-69
2022/12/14 05:07:19;;;;;;;43.98;17.75;;;;;;;-10.71;79.53;97955.34;1585713;90;27392;-66
2022/12/14 05:09:59;;;;;;;57.38;20.52;;;;;;;-10.69;79.48;97953.83;1587414;90;27211;-69
2022/12/14 05:12:40;;;;;;;71.20;23.87;;;;;;;-10.69;79.48;97952.50;1586695;90;25642;-64
2022/12/14 05:15:11;;;;;;;66.07;22.90;;;;;;;-10.68;79.45;97949.66;1587693;90;25788;-69
2022/12/14 05:17:40;;;;;;;62.48;20.68;;;;;;;-10.63;79.44;97947.73;1587972;90;25717;-66
2022/12/14 05:20:17;;;;;;;59.58;20.48;;;;;;;-10.60;79.34;97952.14;1587884;90;27448;-64
2022/12/14 05:22:44;;;;;;;42.62;14.70;;;;;;;-10.59;79.28;97941.85;1587325;90;25661;-69
2022/12/14 05:25:11;;;;;;;60.00;25.17;;;;;;;-10.59;79.24;97946.35;1587561;90;25564;-63
2022/12/14 05:27:37;;;;;;;39.42;16.35;;;;;;;-10.56;79.33;97949.11;1587493;90;25766;-68
2022/12/14 05:30:06;;;;;;;41.35;14.98;;;;;;;-10.54;79.29;97944.45;1587851;90;25769;-69
2022/12/14 05:32:33;;;;;;;59.45;22.58;;;;;;;-10.54;79.29;97937.83;1587863;90;27045;-69
2022/12/14 05:35:01;;;;;;;61.58;23.15;;;;;;;-10.52;79.36;97939.75;1587391;90;25612;-70
2022/12/14 05:37:27;;;;;;;60.12;23.20;;;;;;;-10.51;79.30;97930.29;1587525;90;25765;-70
2022/12/14 05:39:54;;;;;;;68.07;26.80;;;;;;;-10.50;79.34;97927.97;1587533;90;25849;-70
2022/12/14 05:42:20;;;;;;;39.18;15.85;;;;;;;-10.48;79.30;97931.22;1587663;90;25525;-66
2022/12/14 05:44:46;;;;;;;49.73;18.12;;;;;;;-10.47;79.25;97926.26;1647611;86;27514;-69
2022/12/14 05:47:13;;;;;;;29.30;11.50;;;;;;;-10.48;79.28;97923.80;1669027;86;25649;-70
2022/12/14 05:49:40;;;;;;;53.08;18.55;;;;;;;-10.48;79.41;97925.12;1668992;86;25684;-70
2022/12/14 05:52:06;;;;;;;23.98;10.13;;;;;;;-10.48;79.48;97927.78;1671174;85;25786;-68
2022/12/14 05:54:32;;;;;;;45.23;15.90;;;;;;;-10.50;79.55;97939.89;1677466;85;25432;-69
2022/12/14 05:56:58;;;;;;;50.92;18.77;;;;;;;-10.55;79.77;97938.81;1677287;85;27477;-69
2022/12/14 05:59:25;;;;;;;51.00;19.32;;;;;;;-10.60;79.85;97924.83;1677158;85;25740;-66
2022/12/14 06:01:51;;;;;;;32.40;14.95;;;;;;;-10.59;79.91;97934.44;1677297;85;25614;-69
2022/12/14 06:04:18;;;;;;;56.28;21.30;;;;;;;-10.58;79.95;97934.73;1677232;85;25775;-69
2022/12/14 06:06:44;;;;;;;69.10;23.85;;;;;;;-10.53;79.91;97932.83;1677315;85;25614;-69
2022/12/14 06:09:14;;;;;;;30.12;11.15;;;;;;;-10.50;79.89;97937.73;1677265;85;27504;-70
2022/12/14 06:11:41;;;;;;;19.30;9.48;;;;;;;-10.51;79.95;97930.81;1677338;85;26338;-65
2022/12/14 06:14:09;;;;;;;57.67;20.55;;;;;;;-10.51;80.07;97929.48;1677623;85;25550;-69
2022/12/14 06:16:37;;;;;;;54.67;20.65;;;;;;;-10.50;80.14;97919.20;1677244;85;25765;-69
2022/12/14 06:19:04;;;;;;;59.33;22.27;;;;;;;-10.47;80.28;97919.64;1677010;85;25635;-69
2022/12/14 06:21:34;;;;;;;56.20;19.80;;;;;;;-10.42;80.19;97915.05;1677641;85;27396;-70
2022/12/14 06:24:01;;;;;;;50.00;19.17;;;;;;;-10.41;80.13;97909.22;1677783;85;25606;-68
2022/12/14 06:26:30;;;;;;;55.52;20.27;;;;;;;-10.36;80.23;97917.41;1677607;85;25629;-69
2022/12/14 06:28:57;;;;;;;21.97;9.95;;;;;;;-10.31;80.29;97912.32;1677481;85;25803;-69
2022/12/14 06:31:29;;;;;;;42.93;13.40;;;;;;;-10.31;80.32;97907.02;1677593;85;25655;-68
2022/12/14 06:33:58;;;;;;;60.65;23.70;;;;;;;-10.29;80.38;97902.36;1677334;85;27482;-66
2022/12/14 06:36:31;;;;;;;55.08;20.12;;;;;;;-10.26;80.44;97903.29;1677435;85;25446;-63
2022/12/14 06:39:02;;;;;;;41.28;14.93;;;;;;;-10.20;80.45;97899.84;1677497;85;25671;-69
2022/12/14 06:41:28;;;;;;;41.02;14.40;;;;;;;-10.17;80.52;97896.50;1677777;85;26321;-68
2022/12/14 06:43:55;;;;;;;62.98;20.62;;;;;;;-10.13;80.63;97897.73;1677229;85;25826;-67
2022/12/14 06:46:23;;;;;;;74.00;25.43;;;;;;;-10.12;80.56;97902.84;1677264;85;28466;-64
2022/12/14 06:48:52;;;;;;;89.10;27.65;;;;;;;-10.08;80.53;97890.81;1677436;85;25432;-69
2022/12/14 06:51:20;;;;;;;36.70;14.03;;;;;;;-10.05;80.54;97897.55;1677605;85;25773;-69
2022/12/14 06:53:52;;;;;;;60.30;20.20;;;;;;;-10.02;80.46;97899.00;1655927;85;25716;-70
2022/12/14 06:56:21;;;;;;;45.83;17.05;;;;;;;-9.99;80.44;97894.62;1652461;86;25721;-70
2022/12/14 06:58:47;;;;;;;56.77;21.93;;;;;;;-9.98;80.42;97889.63;1652430;86;27532;-69
2022/12/14 07:01:29;;;;;;;56.37;18.75;;;;;;;-9.95;80.44;97894.03;1652075;86;25692;-66
2022/12/14 07:04:06;;;;;;;47.10;18.12;;;;;;;-9.90;80.37;97889.45;1652196;86;25710;-69
2022/12/14 07:06:39;;;;;;;37.75;15.50;;;;;;;-9.83;80.45;97884.16;1652319;86;26369;-70
2022/12/14 07:09:10;;;;;;;50.75;19.17;;;;;;;-9.79;80.31;97873.44;1652288;86;25568;-69
2022/12/14 07:11:36;;;;;;;63.28;23.18;;;;;;;-9.75;80.29;97866.74;1652687;86;27395;-68
2022/12/14 07:14:05;;;;;;;57.73;21.25;;;;;;;-9.70;80.31;97868.27;1652235;86;25680;-69
2022/12/14 07:16:31;;;;;;;27.17;10.50;;;;;;;-9.59;80.44;97870.83;1652165;86;25623;-67
2022/12/14 07:18:57;;;;;;;49.45;18.60;;;;;;;-9.52;80.18;97870.02;1652142;86;25847;-65
2022/12/14 07:21:25;;;;;;;70.65;25.85;;;;;;;-9.46;79.96;97875.34;1652374;86;25654;-64
2022/12/14 07:23:53;;;;;;;28.00;10.80;;;;;;;-9.42;80.07;97864.33;1652538;86;27397;-67
2022/12/14 07:26:27;;;;;;;56.50;20.65;;;;;;;-9.42;79.92;97858.49;1652076;86;25454;-68
2022/12/14 07:28:56;;;;;;;36.03;14.38;;;;;;;-9.37;80.01;97863.19;1652357;86;25625;-67
2022/12/14 07:31:32;;;;;;;50.12;21.97;;;;;;;-9.28;79.97;97854.50;1652366;86;25676;-62
2022/12/14 07:34:13;;;;;;;36.28;16.05;;;;;;;-9.21;79.80;97850.83;1652476;86;25485;-63
2022/12/14 07:36:42;;;;;;;54.25;20.08;;;;;;;-9.12;79.52;97840.84;1636898;86;26042;-63
2022/12/14 07:39:13;;;;;;;41.00;16.40;;;;;;;-9.05;79.49;97844.80;1652227;86;25662;-66
2022/12/14 07:41:40;;;;;;;40.00;14.70;;;;;;;-9.00;79.01;97850.31;1652211;86;25699;-63
2022/12/14 07:44:08;;;;;;;29.37;12.90;;;;;;;-8.93;78.92;97844.18;1652431;86;26825;-64
2022/12/14 07:46:34;;;;;;;34.53;12.70;;;;;;;-8.96;78.83;97844.89;1652122;86;25441;-64
2022/12/14 07:49:02;;;;;;;35.03;12.45;;;;;;;-8.86;78.90;97852.94;1652575;86;28277;-66
2022/12/14 07:51:34;;;;;;;36.88;14.68;;;;;;;-8.80;78.77;97858.75;1651983;86;25502;-64
2022/12/14 07:54:03;;;;;;;41.63;18.07;;;;;;;-8.75;78.70;97856.80;1672125;85;25737;-65
2022/12/14 07:56:34;;;;;;;37.93;16.35;;;;;;;-8.69;78.71;97858.09;1677366;85;25772;-64
2022/12/14 07:59:02;;;;;;;56.85;22.77;;;;;;;-8.67;78.47;97853.11;1677596;85;25756;-63
2022/12/14 08:01:33;;;;;;;47.38;19.07;;;;;;;-8.60;78.76;97856.05;1677413;85;27438;-63
2022/12/14 08:04:09;;;;;;;54.90;22.25;;;;;;;-8.54;78.41;97861.03;1677571;85;25425;-65
2022/12/14 08:06:37;;;;;;;45.03;19.40;;;;;;;-8.48;78.53;97851.37;1677530;85;25621;-63
2022/12/14 08:09:05;;;;;;;53.80;21.52;;;;;;;-8.40;78.51;97847.66;1677486;85;25810;-64
2022/12/14 08:11:31;;;;;;;53.35;23.90;;;;;;;-8.33;78.09;97849.78;1677685;85;25459;-66
2022/12/14 08:14:02;;;;;;;47.08;20.40;;;;;;;-8.19;78.61;97854.02;1677514;85;27462;-63
2022/12/14 08:16:29;;;;;;;49.75;20.12;;;;;;;-8.09;78.07;97848.77;1677580;85;25858;-62
2022/12/14 08:18:57;;;;;;;49.88;20.10;;;;;;;-8.00;78.02;97858.63;1677654;85;25602;-63
2022/12/14 08:21:25;;;;;;;44.73;19.90;;;;;;;-7.93;77.89;97855.42;1677387;85;25801;-62
2022/12/14 08:23:54;;;;;;;40.10;15.85;;;;;;;-7.86;78.00;97850.08;1677712;85;25666;-61
2022/12/14 08:26:22;;;;;;;56.40;20.90;;;;;;;-7.76;77.82;97861.56;1677583;85;28302;-61
2022/12/14 08:28:49;;;;;;;45.60;19.12;;;;;;;-7.75;77.53;97851.23;1677606;85;25404;-61
2022/12/14 08:31:20;;;;;;;22.42;11.78;;;;;;;-7.75;77.61;97850.70;1677671;85;25469;-62
2022/12/14 08:33:47;;;;;;;57.80;24.75;;;;;;;-7.73;77.60;97857.14;1677769;85;25890;-61
2022/12/14 08:36:21;;;;;;;60.70;26.20;;;;;;;-7.71;77.69;97854.56;1677839;85;25501;-62
2022/12/14 08:39:00;;;;;;;51.88;20.50;;;;;;;-7.62;77.99;97850.32;1677556;85;27550;-63
2022/12/14 08:41:28;;;;;;;40.85;18.80;;;;;;;-7.52;78.00;97849.86;1677300;85;25433;-65
2022/12/14 08:44:01;;;;;;;55.60;23.02;;;;;;;-7.38;78.08;97849.22;1677663;85;26034;-62
2022/12/14 08:46:30;;;;;;;46.18;18.87;;;;;;;-7.11;78.75;97858.33;1677553;85;25798;-62
2022/12/14 08:48:58;;;;;;;34.55;14.90;;;;;;;-6.97;77.70;97861.70;1677744;85;25457;-63
2022/12/14 08:51:26;;;;;;;46.28;19.70;;;;;;;-6.90;77.00;97855.78;1677273;85;27466;-62
2022/12/14 08:53:54;;;;;;;41.92;17.85;;;;;;;-6.87;77.22;97862.52;1666594;85;25626;-64
2022/12/14 08:56:24;;;;;;;45.83;19.23;;;;;;;-6.74;77.30;97865.58;1665484;86;25857;-62
2022/12/14 08:58:50;;;;;;;50.25;20.60;;;;;;;-6.63;77.30;97846.17;1667865;85;26289;-63
2022/12/14 09:01:27;;;;;;;48.40;19.95;;;;;;;-6.61;77.07;97848.62;1667943;86;25477;-63
2022/12/14 09:03:53;;;;;;;48.83;20.43;;;;;;;-6.53;77.28;97840.84;1667206;86;27613;-62
2022/12/14 09:06:25;;;;;;;50.78;20.15;;;;;;;-6.40;77.54;97832.69;1667890;86;25591;-62
2022/12/14 09:09:01;;;;;;;29.40;11.97;;;;;;;-6.33;76.75;97830.75;1667609;86;25449;-63
2022/12/14 09:11:28;;;;;;;21.05;11.03;;;;;;;-6.30;76.22;97836.97;1668034;86;25696;-62
2022/12/14 09:13:55;;;;;;;55.30;21.25;;;;;;;-6.37;76.09;97835.42;1667733;85;25648;-62
2022/12/14 09:16:28;;;;;;;47.50;20.62;;;;;;;-6.28;77.13;97830.08;1667515;86;27425;-62
2022/12/14 09:18:53;;;;;;;48.00;19.90;;;;;;;-6.06;77.19;97835.77;1666524;86;25893;-62
2022/12/14 09:21:20;;;;;;;50.00;20.43;;;;;;;-5.88;76.19;97834.59;1667971;86;25718;-63
2022/12/14 09:23:47;;;;;;;54.45;20.77;;;;;;;-5.84;76.08;97836.55;1667856;86;26361;-63
2022/12/14 09:26:19;;;;;;;52.08;22.07;;;;;;;-5.79;75.82;97836.69;1667828;86;25452;-63
2022/12/14 09:28:50;;;;;;;41.90;17.60;;;;;;;-5.74;76.56;97828.52;1667747;85;27612;-62
2022/12/14 09:31:19;;;;;;;46.68;17.90;;;;;;;-5.56;76.42;97820.95;1667647;85;25533;-62
2022/12/14 09:33:46;;;;;;;47.10;19.40;;;;;;;-5.59;75.38;97815.56;1667900;86;25774;-62
2022/12/14 09:36:17;;;;;;;48.40;20.23;;;;;;;-5.51;76.28;97816.27;1667533;86;25681;-62
2022/12/14 09:38:45;;;;;;;40.88;16.90;;;;;;;-5.39;76.61;97825.66;1666493;86;25710;-62
2022/12/14 09:41:35;;;;;;;39.95;15.80;;;;;;;-5.45;74.99;97816.68;1667517;86;27510;-62
2022/12/14 09:44:24;;;;;;;37.50;17.20;;;;;;;-5.44;75.58;97821.00;1667481;86;25717;-65
2022/12/14 09:47:17;;;;;;;41.68;18.65;;;;;;;-5.39;75.72;97821.10;1666885;86;25784;-63
2022/12/14 09:49:58;;;;;;;44.23;16.52;;;;;;;-5.24;76.36;97818.52;1663829;85;25890;-62
2022/12/14 09:52:53;;;;;;;40.35;17.17;;;;;;;-5.22;75.44;97813.23;1667903;85;25482;-62
2022/12/14 09:55:34;;;;;;;41.35;17.45;;;;;;;-5.22;75.34;97811.89;1667517;86;27507;-62
2022/12/14 09:58:15;;;;;;;35.45;13.28;;;;;;;-5.23;75.26;97812.13;1667584;86;27157;-63
2022/12/14 10:01:08;;;;;;;41.75;16.70;;;;;;;-5.32;75.05;97820.47;1667976;86;25452;-64
2022/12/14 10:04:14;;;;;;;43.05;15.45;;;;;;;-5.37;75.56;97823.03;1667779;86;25780;-64
2022/12/14 10:07:16;;;;;;;40.58;16.73;;;;;;;-5.38;75.49;97813.91;1667697;86;25522;-65
2022/12/14 10:09:48;;;;;;;47.88;18.42;;;;;;;-5.45;75.46;97796.14;1667506;86;27393;-65
2022/12/14 10:12:28;;;;;;;33.23;13.53;;;;;;;-5.50;76.27;97789.33;1667847;86;25667;-65
2022/12/14 10:15:23;;;;;;;39.98;15.10;;;;;;;-5.47;75.98;97778.19;1667572;86;25676;-66
2022/12/14 10:18:24;;;;;;;42.90;17.12;;;;;;;-5.52;75.53;97767.92;1666376;86;25762;-67
2022/12/14 10:21:04;;;;;;;39.80;15.98;;;;;;;-5.54;75.96;97767.64;1667507;86;25623;-64
2022/12/14 10:23:32;;;;;;;27.85;11.20;;;;;;;-5.47;75.83;97779.52;1644252;86;27335;-65
2022/12/14 10:26:06;;;;;;;49.95;21.57;;;;;;;-5.47;75.31;97772.85;1667365;86;25501;-64
2022/12/14 10:28:57;;;;;;;148.82;40.35;;;;;;;-5.45;74.93;97768.62;1667537;85;25656;-67
2022/12/14 10:31:50;;;;;;;49.27;20.15;;;;;;;-5.37;75.51;97768.80;1667743;86;25727;-66
2022/12/14 10:34:50;;;;;;;43.15;16.87;;;;;;;-5.32;74.71;97768.92;1667965;86;25500;-64
2022/12/14 10:37:39;;;;;;;40.98;18.52;;;;;;;-5.25;75.08;97756.27;1667701;85;27444;-64
2022/12/14 10:40:31;;;;;;;42.20;18.80;;;;;;;-5.22;74.39;97753.64;1667314;86;25691;-64
2022/12/14 10:43:35;;;;;;;40.48;17.07;;;;;;;-5.21;74.83;97755.28;1667451;86;25747;-64
2022/12/14 10:46:25;;;;;;;50.65;20.32;;;;;;;-5.17;74.57;97750.58;1667700;86;25683;-65
2022/12/14 10:49:15;;;;;;;43.15;20.12;;;;;;;-5.05;75.19;97747.06;1666436;86;25660;-67
2022/12/14 10:51:49;;;;;;;30.48;13.98;;;;;;;-4.98;74.77;97737.06;1667874;86;28209;-64
2022/12/14 10:54:30;;;;;;;34.25;14.10;;;;;;;-4.89;74.24;97735.38;1671177;85;25607;-65
2022/12/14 10:56:57;;;;;;;39.38;18.40;;;;;;;-4.90;73.61;97731.88;1678792;85;25434;-64
2022/12/14 10:59:28;;;;;;;38.23;17.00;;;;;;;-4.91;74.47;97723.58;1674176;85;25792;-64
2022/12/14 11:02:08;;;;;;;30.12;12.78;;;;;;;-4.89;73.56;97726.02;1678219;85;25798;-64
2022/12/14 11:04:49;;;;;;;38.33;15.70;;;;;;;-4.86;73.17;97716.19;1663657;85;27520;-64
2022/12/14 11:07:18;;;;;;;61.33;22.13;;;;;;;-4.94;73.19;97704.01;1659876;85;25695;-64
2022/12/14 11:09:45;;;;;;;30.62;16.05;;;;;;;-4.94;73.58;97703.49;1678181;85;25588;-64
2022/12/14 11:12:28;;;;;;;46.15;17.92;;;;;;;-4.97;73.25;97694.61;1677889;85;25729;-65
2022/12/14 11:15:05;;;;;;;45.15;19.05;;;;;;;-4.91;73.75;97690.17;1677948;85;25639;-64
2022/12/14 11:17:39;;;;;;;45.65;19.80;;;;;;;-4.80;73.75;97685.30;1678177;85;27445;-65
2022/12/14 11:20:21;;;;;;;38.98;16.62;;;;;;;-4.77;72.86;97682.70;1687290;84;25776;-63
2022/12/14 11:22:57;;;;;;;45.23;18.52;;;;;;;-4.67;72.56;97680.22;1699350;84;25694;-64
2022/12/14 11:25:41;;;;;;;44.93;18.67;;;;;;;-4.65;72.15;97665.27;1699395;84;25706;-64
2022/12/14 11:28:33;;;;;;;46.13;19.70;;;;;;;-4.58;72.49;97664.59;1699566;84;25683;-65
2022/12/14 11:31:10;;;;;;;30.17;11.40;;;;;;;-4.44;72.59;97664.30;1700231;84;27451;-65
2022/12/14 11:33:50;;;;;;;40.40;17.77;;;;;;;-4.49;71.92;97656.20;1699924;84;25748;-65
2022/12/14 11:36:28;;;;;;;43.68;18.82;;;;;;;-4.58;72.07;97651.77;1700156;84;25662;-65
2022/12/14 11:39:01;;;;;;;25.35;11.40;;;;;;;-4.54;72.80;97641.70;1700032;84;25776;-65
2022/12/14 11:41:35;;;;;;;45.85;20.10;;;;;;;-4.63;72.17;97631.62;1700606;84;25643;-65
2022/12/14 11:44:15;;;;;;;59.55;23.67;;;;;;;-4.60;72.37;97627.12;1700052;84;27539;-65
2022/12/14 11:46:47;;;;;;;49.35;22.60;;;;;;;-4.60;72.67;97619.11;1700220;84;27241;-66
2022/12/14 11:49:43;;;;;;;57.10;21.68;;;;;;;-4.50;73.00;97619.80;1699261;84;25685;-64
2022/12/14 11:52:17;;;;;;;41.73;18.60;;;;;;;-4.47;72.29;97616.13;1700008;84;25782;-64
2022/12/14 11:54:48;;;;;;;54.77;21.20;;;;;;;-4.33;72.89;97614.47;1699950;84;25689;-64
2022/12/14 11:57:32;;;;;;;;;;;;;;;-4.43;72.45;97607.89;1699727;84;27391;-65